Terminal Aerodrome Forecast
Issued by NWS

Home | Current Version | Previous Version | Text Only | Print | Product List | Glossary On
Versions: 1 2 3 4 5 6 7 8 9 10 11 12 13 14
403
FTUS45 KABQ 262321
TAFAEG
TAF
KAEG 262321Z 2700/2724 27007KT P6SM BKN050
     FM270300 30005KT P6SM SCT050
     FM271600 21010KT P6SM BKN060
     FM271900 23015G25KT P6SM BKN080=

USA.gov is the U.S. government's official web portal to all federal, state and local government web resources and services.